createdAt,value
2018-10-09T00:00:49.470Z,17.90
2018-10-09T00:03:18.442Z,16.33
2018-10-09T00:05:47.518Z,14.90
2018-10-09T00:08:16.524Z,16.17
2018-10-09T00:10:45.510Z,15.47
2018-10-09T00:13:14.563Z,21.30
2018-10-09T00:15:43.611Z,17.57
2018-10-09T00:18:12.675Z,17.87
2018-10-09T00:20:41.729Z,17.30
2018-10-09T00:23:10.739Z,20.20
2018-10-09T00:25:39.691Z,22.70
2018-10-09T00:28:08.706Z,17.80
2018-10-09T00:30:37.731Z,16.73
2018-10-09T00:33:06.912Z,23.27
2018-10-09T00:35:35.918Z,16.10
2018-10-09T00:38:05.087Z,19.93
2018-10-09T00:40:34.035Z,14.27
2018-10-09T00:43:03.073Z,17.87
2018-10-09T00:45:32.044Z,18.60
2018-10-09T00:48:01.072Z,21.23
2018-10-09T00:50:30.066Z,19.13
2018-10-09T00:52:59.081Z,20.87
2018-10-09T00:55:28.053Z,18.47
2018-10-09T00:57:57.095Z,21.30
2018-10-09T01:00:26.249Z,21.03
2018-10-09T01:02:55.289Z,22.87
2018-10-09T01:05:24.363Z,22.77
2018-10-09T01:07:53.592Z,24.67
2018-10-09T01:10:22.693Z,27.00
2018-10-09T01:12:51.808Z,20.33
2018-10-09T01:15:20.862Z,23.33
2018-10-09T01:17:49.913Z,23.73
2018-10-09T01:20:24.129Z,22.57
2018-10-09T01:22:53.116Z,19.43
2018-10-09T01:25:22.289Z,21.03
2018-10-09T01:27:51.373Z,24.53
2018-10-09T01:30:20.400Z,20.63
2018-10-09T01:32:49.376Z,18.67
2018-10-09T01:35:18.512Z,19.80
2018-10-09T01:37:47.457Z,24.57
2018-10-09T01:40:16.497Z,19.93
2018-10-09T01:42:45.802Z,17.77
2018-10-09T01:45:14.748Z,22.73
2018-10-09T01:47:43.870Z,21.87
2018-10-09T01:50:12.812Z,20.70
2018-10-09T01:52:41.892Z,22.50
2018-10-09T01:55:10.955Z,21.30
2018-10-09T01:57:39.978Z,22.17
2018-10-09T02:00:09.888Z,21.20
2018-10-09T02:02:40.221Z,24.03
2018-10-09T02:05:09.483Z,21.23
2018-10-09T02:07:38.567Z,20.60
2018-10-09T02:10:07.812Z,19.90
2018-10-09T02:12:36.866Z,20.87
2018-10-09T02:15:06.055Z,21.77
2018-10-09T02:17:35.113Z,19.43
2018-10-09T02:20:04.243Z,20.67
2018-10-09T02:22:33.303Z,20.90
2018-10-09T02:25:02.295Z,21.50
2018-10-09T02:27:31.287Z,19.37
2018-10-09T02:30:00.362Z,19.50
2018-10-09T02:32:29.381Z,19.47
2018-10-09T02:34:58.492Z,20.00
2018-10-09T02:37:27.557Z,21.93
2018-10-09T02:39:56.624Z,23.93
2018-10-09T02:42:25.663Z,20.50
2018-10-09T02:44:54.755Z,19.03
2018-10-09T02:47:23.816Z,20.90
2018-10-09T02:49:52.835Z,19.50
2018-10-09T02:52:21.862Z,23.73
2018-10-09T02:54:50.892Z,20.83
2018-10-09T02:57:19.902Z,21.07
2018-10-09T02:59:48.998Z,22.17
2018-10-09T03:02:18.004Z,23.37
2018-10-09T03:04:47.174Z,18.40
2018-10-09T03:07:16.166Z,25.70
2018-10-09T03:09:45.137Z,22.10
2018-10-09T03:12:14.176Z,20.50
2018-10-09T03:14:43.289Z,21.13
2018-10-09T03:17:12.350Z,21.10
2018-10-09T03:19:41.343Z,26.40
2018-10-09T03:22:10.343Z,19.43
2018-10-09T03:24:39.414Z,22.37
2018-10-09T03:27:08.435Z,25.63
2018-10-09T03:29:37.518Z,20.03
2018-10-09T03:32:07.044Z,24.70
2018-10-09T03:34:36.130Z,21.40
2018-10-09T03:37:05.472Z,19.87
2018-10-09T03:39:34.538Z,25.80
2018-10-09T03:42:03.637Z,22.87
2018-10-09T03:44:32.806Z,24.73
2018-10-09T03:47:01.826Z,19.83
2018-10-09T03:49:30.882Z,28.03
2018-10-09T03:51:59.895Z,27.50
2018-10-09T03:54:29.036Z,23.47
2018-10-09T03:56:58.070Z,28.67
2018-10-09T03:59:27.065Z,25.53
2018-10-09T04:01:56.063Z,25.27
2018-10-09T04:04:25.209Z,21.80
2018-10-09T04:06:54.259Z,27.07
2018-10-09T04:09:23.428Z,23.00
2018-10-09T04:11:52.440Z,20.90
2018-10-09T04:14:21.455Z,30.27
2018-10-09T04:16:50.451Z,25.33
2018-10-09T04:19:19.534Z,25.47
2018-10-09T04:21:48.653Z,26.90
2018-10-09T04:24:17.765Z,25.27
2018-10-09T04:26:46.847Z,25.03
2018-10-09T04:29:15.937Z,28.83
2018-10-09T04:31:45.045Z,30.77
2018-10-09T04:34:14.093Z,24.13
2018-10-09T04:36:43.213Z,27.60
2018-10-09T04:39:12.337Z,29.03
2018-10-09T04:41:41.437Z,33.70
2018-10-09T04:44:10.472Z,22.67
2018-10-09T04:46:39.475Z,31.40
2018-10-09T04:49:08.594Z,28.27
2018-10-09T04:51:37.653Z,28.60
2018-10-09T04:54:06.691Z,27.23
2018-10-09T04:56:35.846Z,29.60
2018-10-09T04:59:04.885Z,31.27
2018-10-09T05:01:33.974Z,31.93
2018-10-09T05:04:02.946Z,36.57
2018-10-09T05:06:32.059Z,26.43
2018-10-09T05:09:01.117Z,29.23
2018-10-09T05:13:50.830Z,31.10
2018-10-09T05:16:19.869Z,36.17
2018-10-09T05:18:48.901Z,38.50
2018-10-09T05:21:24.062Z,32.97
2018-10-09T05:23:53.167Z,29.67
2018-10-09T05:26:22.271Z,28.53
2018-10-09T05:28:51.278Z,38.80
2018-10-09T05:31:20.345Z,31.53
2018-10-09T05:33:49.290Z,33.80
2018-10-09T05:36:18.355Z,31.97
2018-10-09T05:38:47.421Z,37.27
2018-10-09T05:41:16.494Z,38.70
2018-10-09T05:43:45.522Z,35.83
2018-10-09T05:46:14.618Z,32.20
2018-10-09T05:48:43.685Z,29.93
2018-10-09T05:51:12.703Z,29.77
2018-10-09T05:53:41.742Z,32.43
2018-10-09T05:56:11.732Z,36.40
2018-10-09T05:58:40.796Z,29.90
2018-10-09T06:01:09.782Z,37.57
2018-10-09T06:03:38.864Z,34.70
2018-10-09T06:06:08.041Z,39.17
2018-10-09T06:08:37.096Z,33.00
2018-10-09T06:11:06.134Z,33.17
2018-10-09T06:13:36.218Z,31.17
2018-10-09T06:16:05.312Z,33.90
2018-10-09T06:18:34.330Z,31.30
2018-10-09T06:21:03.367Z,37.10
2018-10-09T06:23:33.306Z,40.03
2018-10-09T06:26:02.321Z,32.57
2018-10-09T06:28:31.396Z,34.83
2018-10-09T06:31:00.413Z,34.83
2018-10-09T06:33:29.452Z,32.60
2018-10-09T06:35:58.856Z,38.30
2018-10-09T06:38:27.952Z,40.70
2018-10-09T06:43:18.666Z,44.13
2018-10-09T06:45:47.804Z,32.20
2018-10-09T06:48:16.826Z,41.80
2018-10-09T06:51:49.710Z,35.77
2018-10-09T06:54:18.753Z,39.20
2018-10-09T06:56:47.858Z,36.97
2018-10-09T06:59:16.928Z,44.10
2018-10-09T07:01:45.888Z,43.20
2018-10-09T07:04:14.903Z,38.17
2018-10-09T07:06:44.057Z,32.57
2018-10-09T07:09:13.062Z,41.27
2018-10-09T07:11:42.067Z,37.93
2018-10-09T07:14:11.055Z,37.93
2018-10-09T07:16:40.226Z,38.60
2018-10-09T07:19:09.242Z,37.77
2018-10-09T07:21:38.244Z,43.10
2018-10-09T07:24:07.267Z,43.90
2018-10-09T07:26:36.366Z,38.13
2018-10-09T07:29:05.517Z,34.83
2018-10-09T07:31:34.499Z,36.10
2018-10-09T07:34:03.458Z,41.00
2018-10-09T07:36:32.538Z,38.10
2018-10-09T07:39:01.700Z,34.33
2018-10-09T07:41:30.665Z,32.93
2018-10-09T07:43:59.696Z,37.43
2018-10-09T07:46:30.148Z,36.90
2018-10-09T07:48:59.860Z,38.00
2018-10-09T07:51:28.916Z,44.03
2018-10-09T07:53:58.230Z,41.10
2018-10-09T07:56:27.357Z,53.63
2018-10-09T07:58:56.418Z,54.40
2018-10-09T08:01:25.434Z,46.83
2018-10-09T08:03:54.530Z,46.90
2018-10-09T08:06:23.560Z,42.53
2018-10-09T08:08:52.922Z,41.43
2018-10-09T08:11:21.874Z,45.43
2018-10-09T08:13:51.136Z,45.40
2018-10-09T08:16:20.213Z,44.97
2018-10-09T08:18:49.198Z,40.87
2018-10-09T08:21:18.178Z,46.93
2018-10-09T08:23:47.506Z,50.23
2018-10-09T08:26:16.794Z,43.97
2018-10-09T08:28:45.883Z,40.30
2018-10-09T08:31:14.990Z,38.10
2018-10-09T08:33:44.011Z,43.47
2018-10-09T08:36:13.074Z,44.17
2018-10-09T08:38:42.165Z,43.40
2018-10-09T08:41:11.158Z,42.53
2018-10-09T08:43:40.170Z,45.80
2018-10-09T08:46:09.258Z,40.73
2018-10-09T08:48:38.361Z,47.80
2018-10-09T08:51:07.377Z,44.60
2018-10-09T08:53:36.531Z,44.97
2018-10-09T08:56:05.745Z,42.30
2018-10-09T08:58:34.810Z,49.00
2018-10-09T09:01:03.924Z,53.73
2018-10-09T09:03:33.065Z,54.70
2018-10-09T09:06:01.998Z,51.97
2018-10-09T09:08:31.102Z,53.93
2018-10-09T09:11:00.430Z,51.93
2018-10-09T09:13:29.442Z,48.90
2018-10-09T09:15:58.446Z,53.10
2018-10-09T09:18:27.474Z,50.07
2018-10-09T09:20:56.628Z,60.40
2018-10-09T09:23:25.637Z,51.40
2018-10-09T09:25:54.670Z,55.73
2018-10-09T09:28:23.780Z,47.43
2018-10-09T09:30:52.862Z,50.63
2018-10-09T09:33:21.979Z,50.97
2018-10-09T09:35:51.024Z,52.90
2018-10-09T09:38:20.143Z,54.77
2018-10-09T09:40:49.248Z,49.23
2018-10-09T09:43:18.439Z,55.13
2018-10-09T09:45:47.923Z,48.27
2018-10-09T09:48:16.884Z,51.73
2018-10-09T09:50:45.909Z,52.87
2018-10-09T09:53:15.069Z,50.97
2018-10-09T09:55:44.179Z,46.40
2018-10-09T09:58:13.337Z,54.27
2018-10-09T10:00:47.733Z,51.50
2018-10-09T10:03:16.856Z,52.30
2018-10-09T10:05:46.005Z,54.70
2018-10-09T10:08:16.769Z,51.13
2018-10-09T10:10:45.826Z,57.23
2018-10-09T10:13:14.837Z,46.77
2018-10-09T10:15:49.345Z,49.77
2018-10-09T10:18:18.299Z,50.57
2018-10-09T10:20:47.289Z,55.17
2018-10-09T10:23:16.280Z,51.13
2018-10-09T10:25:45.367Z,45.37
2018-10-09T10:28:14.541Z,45.60
2018-10-09T10:30:43.641Z,57.60
2018-10-09T10:33:12.909Z,46.23
2018-10-09T10:35:42.025Z,50.30
2018-10-09T10:38:11.025Z,40.53
2018-10-09T10:40:40.146Z,48.97
2018-10-09T10:43:09.126Z,42.17
2018-10-09T10:45:38.219Z,45.33
2018-10-09T10:48:07.505Z,47.10
2018-10-09T10:50:36.655Z,50.10
2018-10-09T10:53:05.689Z,43.70
2018-10-09T10:55:34.773Z,47.77
2018-10-09T10:58:03.835Z,43.03
2018-10-09T11:00:32.873Z,45.70
2018-10-09T11:03:01.943Z,42.77
2018-10-09T11:05:30.994Z,43.97
2018-10-09T11:08:00.212Z,40.53
2018-10-09T11:10:29.134Z,41.43
2018-10-09T11:12:58.118Z,43.20
2018-10-09T11:15:27.158Z,38.03
2018-10-09T11:17:56.226Z,42.33
2018-10-09T11:20:25.215Z,35.63
2018-10-09T11:22:54.178Z,41.03
2018-10-09T11:25:23.262Z,38.83
2018-10-09T11:27:52.352Z,39.40
2018-10-09T11:30:21.414Z,37.40
2018-10-09T11:32:50.478Z,37.67
2018-10-09T11:35:19.526Z,35.40
2018-10-09T11:37:48.610Z,41.83
2018-10-09T11:40:17.694Z,38.40
2018-10-09T11:42:46.723Z,35.33
2018-10-09T11:45:15.866Z,36.80
2018-10-09T11:47:45.024Z,34.80
2018-10-09T11:50:14.080Z,29.13
2018-10-09T11:52:43.068Z,28.27
2018-10-09T11:55:12.136Z,25.90
2018-10-09T11:57:41.248Z,26.07
2018-10-09T12:00:10.402Z,29.77
2018-10-09T12:02:39.436Z,22.93
2018-10-09T12:05:08.534Z,22.07
2018-10-09T12:07:37.638Z,21.67
2018-10-09T12:10:06.801Z,23.37
2018-10-09T12:12:35.778Z,25.57
2018-10-09T12:15:04.826Z,21.20
2018-10-09T12:17:33.841Z,26.10
2018-10-09T12:20:02.934Z,21.10
2018-10-09T12:22:31.981Z,21.50
2018-10-09T12:25:00.996Z,23.27
2018-10-09T12:27:30.075Z,22.23
2018-10-09T12:29:59.213Z,18.23
2018-10-09T12:32:28.277Z,18.20
2018-10-09T12:34:57.376Z,17.80
2018-10-09T12:37:26.540Z,21.50
2018-10-09T12:39:55.782Z,20.03
2018-10-09T12:42:24.847Z,15.87
2018-10-09T12:44:53.866Z,15.93
2018-10-09T12:47:23.028Z,18.77
2018-10-09T12:49:52.250Z,16.07
2018-10-09T12:52:21.249Z,18.00
2018-10-09T12:54:50.336Z,17.60
2018-10-09T12:57:19.307Z,22.43
2018-10-09T12:59:48.375Z,22.90
2018-10-09T13:02:17.497Z,20.17
2018-10-09T13:04:46.477Z,14.37
2018-10-09T13:07:15.487Z,16.97
2018-10-09T13:09:44.541Z,14.47
2018-10-09T13:12:13.617Z,15.63
2018-10-09T13:14:42.675Z,13.00
2018-10-09T13:17:11.735Z,13.10
2018-10-09T13:19:40.789Z,15.13
2018-10-09T13:22:13.612Z,15.23
2018-10-09T13:24:42.673Z,10.53
2018-10-09T13:27:11.803Z,11.73
2018-10-09T13:29:40.921Z,16.67
2018-10-09T13:32:09.929Z,16.00
2018-10-09T13:34:39.018Z,12.17
2018-10-09T13:37:08.134Z,11.50
2018-10-09T13:39:37.302Z,11.77
2018-10-09T13:42:06.324Z,7.13
2018-10-09T13:44:35.308Z,8.03
2018-10-09T13:47:04.312Z,8.60
2018-10-09T13:49:33.318Z,6.30
2018-10-09T13:52:02.392Z,10.70
2018-10-09T13:54:31.410Z,6.77
2018-10-09T13:57:00.490Z,6.83
2018-10-09T13:59:29.500Z,8.40
2018-10-09T14:01:58.554Z,7.97
2018-10-09T14:04:27.572Z,6.07
2018-10-09T14:06:56.704Z,8.20
2018-10-09T14:09:25.803Z,10.47
2018-10-09T14:11:54.861Z,11.10
2018-10-09T14:14:24.037Z,6.77
2018-10-09T14:16:53.043Z,12.23
2018-10-09T14:19:22.156Z,9.90
2018-10-09T14:21:51.358Z,9.83
2018-10-09T14:24:20.345Z,8.17
2018-10-09T14:26:49.465Z,10.37
2018-10-09T14:29:18.545Z,12.03
2018-10-09T14:31:47.654Z,10.90
2018-10-09T14:34:16.782Z,16.47
2018-10-09T14:36:45.853Z,10.07
2018-10-09T14:39:14.926Z,9.60
2018-10-09T14:41:43.928Z,10.73
2018-10-09T14:44:12.971Z,11.27
2018-10-09T14:46:42.026Z,11.67
2018-10-09T14:49:11.006Z,12.47
2018-10-09T14:51:40.169Z,11.90
2018-10-09T14:54:09.396Z,10.83
2018-10-09T14:56:38.486Z,8.53
2018-10-09T14:59:07.595Z,12.47
2018-10-09T15:01:36.678Z,10.80
2018-10-09T15:04:05.995Z,11.67
2018-10-09T15:06:35.068Z,12.30
2018-10-09T15:09:06.550Z,13.10
2018-10-09T15:11:35.629Z,12.33
2018-10-09T15:14:04.595Z,12.93
2018-10-09T15:16:33.573Z,10.20
2018-10-09T15:19:02.623Z,10.30
2018-10-09T15:21:31.701Z,11.40
2018-10-09T15:24:00.687Z,12.87
2018-10-09T15:26:29.676Z,10.80
2018-10-09T15:28:59.434Z,14.60
2018-10-09T15:31:28.489Z,14.00
2018-10-09T15:33:57.573Z,12.47
2018-10-09T15:36:26.659Z,18.13
2018-10-09T15:38:55.777Z,13.57
2018-10-09T15:41:24.862Z,16.83
2018-10-09T15:43:53.829Z,15.23
2018-10-09T15:46:22.805Z,17.77
2018-10-09T15:48:51.878Z,17.60
2018-10-09T15:51:20.993Z,13.60
2018-10-09T15:53:50.019Z,19.87
2018-10-09T15:56:19.036Z,16.67
2018-10-09T15:58:48.053Z,14.93
2018-10-09T16:01:17.139Z,15.97
2018-10-09T16:03:46.192Z,16.10
2018-10-09T16:06:15.184Z,19.80
2018-10-09T16:08:44.308Z,17.40
2018-10-09T16:11:13.438Z,19.43
2018-10-09T16:13:42.481Z,17.53
2018-10-09T16:16:11.461Z,17.47
2018-10-09T16:18:40.501Z,19.53
2018-10-09T16:21:09.566Z,17.73
2018-10-09T16:23:38.782Z,23.30
2018-10-09T16:26:07.859Z,21.40
2018-10-09T16:28:37.001Z,21.67
2018-10-09T16:31:06.244Z,22.73
2018-10-09T16:33:36.343Z,22.93
2018-10-09T16:36:05.344Z,23.73
2018-10-09T16:38:34.354Z,29.57
2018-10-09T16:41:03.546Z,23.17
2018-10-09T16:43:32.510Z,18.57
2018-10-09T16:46:01.511Z,21.17
2018-10-09T16:48:30.585Z,21.10
2018-10-09T16:50:59.670Z,22.30
2018-10-09T16:53:28.928Z,18.60
2018-10-09T16:55:57.941Z,18.10
2018-10-09T16:58:27.065Z,15.57
2018-10-09T17:00:56.130Z,17.17
2018-10-09T17:03:25.507Z,18.80
2018-10-09T17:05:54.517Z,23.37
2018-10-09T17:08:23.620Z,24.70
2018-10-09T17:10:52.723Z,27.73
2018-10-09T17:13:21.819Z,24.13
2018-10-09T17:15:50.951Z,38.20
2018-10-09T17:18:19.984Z,22.30
2018-10-09T17:20:49.007Z,30.33
2018-10-09T17:23:18.092Z,26.43
2018-10-09T17:25:47.211Z,29.77
2018-10-09T17:28:16.308Z,29.57
2018-10-09T17:30:45.340Z,31.30
2018-10-09T17:33:14.547Z,23.60
2018-10-09T17:35:43.495Z,25.47
2018-10-09T17:38:12.525Z,20.67
2018-10-09T17:40:41.561Z,18.60
2018-10-09T17:43:10.976Z,20.50
2018-10-09T17:45:40.074Z,20.13
2018-10-09T17:48:09.135Z,18.93
2018-10-09T17:50:38.150Z,19.17
2018-10-09T17:53:07.658Z,20.80
2018-10-09T17:55:36.786Z,20.07
2018-10-09T17:58:05.770Z,21.23
2018-10-09T18:00:35.042Z,18.83
2018-10-09T18:03:04.195Z,19.07
2018-10-09T18:05:33.197Z,18.90
2018-10-09T18:08:02.194Z,20.27
2018-10-09T18:10:31.171Z,23.27
2018-10-09T18:13:00.241Z,19.37
2018-10-09T18:15:29.242Z,22.80
2018-10-09T18:17:58.242Z,21.40
2018-10-09T18:20:27.410Z,25.00
2018-10-09T18:22:56.422Z,21.87
2018-10-09T18:25:25.441Z,22.27
2018-10-09T18:27:54.418Z,25.17
2018-10-09T18:30:23.462Z,23.10
2018-10-09T18:32:52.620Z,19.43
2018-10-09T18:35:21.564Z,20.73
2018-10-09T18:37:50.844Z,24.00
2018-10-09T18:40:20.010Z,21.87
2018-10-09T18:42:49.056Z,24.30
2018-10-09T18:45:18.158Z,21.67
2018-10-09T18:47:47.279Z,23.13
2018-10-09T18:50:16.327Z,21.17
2018-10-09T18:52:45.451Z,23.87
2018-10-09T18:55:15.930Z,21.40
2018-10-09T18:57:45.250Z,21.50
2018-10-09T19:00:14.858Z,23.90
2018-10-09T19:02:43.985Z,24.80
2018-10-09T19:05:12.985Z,21.13
2018-10-09T19:07:41.985Z,19.93
2018-10-09T19:10:11.037Z,21.70
2018-10-09T19:12:40.077Z,22.10
2018-10-09T19:15:09.066Z,19.83
2018-10-09T19:17:38.150Z,23.63
2018-10-09T19:20:07.254Z,18.47
2018-10-09T19:22:36.363Z,24.40
2018-10-09T19:25:05.513Z,24.43
2018-10-09T19:27:34.590Z,21.50
2018-10-09T19:30:03.811Z,23.80
2018-10-09T19:32:32.961Z,19.30
2018-10-09T19:35:01.973Z,20.93
2018-10-09T19:37:31.013Z,19.30
2018-10-09T19:40:00.017Z,23.57
2018-10-09T19:42:29.107Z,26.60
2018-10-09T19:44:58.211Z,21.67
2018-10-09T19:47:27.273Z,21.70
2018-10-09T19:49:56.345Z,23.80
2018-10-09T19:52:25.491Z,26.10
2018-10-09T19:54:55.537Z,23.20
2018-10-09T19:57:24.615Z,25.97
2018-10-09T19:59:53.701Z,25.67
2018-10-09T20:02:22.872Z,29.60
2018-10-09T20:04:51.859Z,26.23
2018-10-09T20:07:21.021Z,27.30
2018-10-09T20:09:50.075Z,29.23
2018-10-09T20:12:19.231Z,31.03
2018-10-09T20:14:48.305Z,29.20
2018-10-09T20:17:17.340Z,28.77
2018-10-09T20:19:46.362Z,25.60
2018-10-09T20:22:15.357Z,25.20
2018-10-09T20:24:44.510Z,24.87
2018-10-09T20:27:13.499Z,26.47
2018-10-09T20:29:42.519Z,28.70
2018-10-09T20:32:11.631Z,27.27
2018-10-09T20:34:40.773Z,29.07
2018-10-09T20:37:09.861Z,29.70
2018-10-09T20:39:38.895Z,27.23
2018-10-09T20:42:08.013Z,27.50
2018-10-09T20:44:37.117Z,26.30
2018-10-09T20:47:06.496Z,29.13
2018-10-09T20:49:35.581Z,29.53
2018-10-09T20:52:04.679Z,30.23
2018-10-09T20:54:33.841Z,25.90
2018-10-09T20:57:02.871Z,27.83
2018-10-09T20:59:32.037Z,28.23
2018-10-09T21:02:01.094Z,27.43
2018-10-09T21:04:30.139Z,32.27
2018-10-09T21:06:59.135Z,32.77
2018-10-09T21:09:28.247Z,32.27
2018-10-09T21:11:57.269Z,30.07
2018-10-09T21:14:26.449Z,27.30
2018-10-09T21:16:55.542Z,33.00
2018-10-09T21:19:24.642Z,29.27
2018-10-09T21:21:53.890Z,29.77
2018-10-09T21:24:22.917Z,28.53
2018-10-09T21:26:52.015Z,33.47
2018-10-09T21:29:21.091Z,31.37
2018-10-09T21:31:50.202Z,28.83
2018-10-09T21:34:24.891Z,26.47
2018-10-09T21:36:53.885Z,30.53
2018-10-09T21:39:22.877Z,32.37
2018-10-09T21:41:51.908Z,31.23
2018-10-09T21:44:20.927Z,30.40
2018-10-09T21:46:49.902Z,30.53
2018-10-09T21:49:18.934Z,30.10
2018-10-09T21:51:48.044Z,31.17
2018-10-09T21:54:17.066Z,34.73
2018-10-09T21:56:46.114Z,33.07
2018-10-09T21:59:15.198Z,33.27
2018-10-09T22:01:45.290Z,33.47
2018-10-09T22:04:14.385Z,28.37
2018-10-09T22:06:43.446Z,27.10
2018-10-09T22:09:12.454Z,31.03
2018-10-09T22:11:41.562Z,31.47
2018-10-09T22:14:10.666Z,32.53
2018-10-09T22:16:39.663Z,32.23
2018-10-09T22:19:08.645Z,35.97
2018-10-09T22:21:37.845Z,35.93
2018-10-09T22:24:07.065Z,34.40
2018-10-09T22:26:36.139Z,35.63
2018-10-09T22:29:05.260Z,34.60
2018-10-09T22:31:34.261Z,33.47
2018-10-09T22:34:03.335Z,33.00
2018-10-09T22:36:32.370Z,35.90
2018-10-09T22:39:01.368Z,35.37
2018-10-09T22:41:30.403Z,34.03
2018-10-09T22:43:59.592Z,32.13
2018-10-09T22:46:28.540Z,33.90
2018-10-09T22:48:57.537Z,36.70
2018-10-09T22:51:26.564Z,42.17
2018-10-09T22:53:55.683Z,35.50
2018-10-09T22:56:24.739Z,37.33
2018-10-09T22:58:53.775Z,44.23
2018-10-09T23:01:22.836Z,42.17
2018-10-09T23:03:51.811Z,40.97
2018-10-09T23:06:20.930Z,44.57
2018-10-09T23:08:50.053Z,46.60
2018-10-09T23:11:19.136Z,40.30
2018-10-09T23:13:48.295Z,42.27
2018-10-09T23:16:17.290Z,40.80
2018-10-09T23:18:46.302Z,39.10
2018-10-09T23:21:15.442Z,38.47
2018-10-09T23:23:44.506Z,39.97
2018-10-09T23:26:13.611Z,38.97
2018-10-09T23:28:42.724Z,34.10
2018-10-09T23:31:11.738Z,36.07
2018-10-09T23:33:40.780Z,36.63
2018-10-09T23:36:09.946Z,41.77
2018-10-09T23:38:38.974Z,42.70
2018-10-09T23:41:08.054Z,39.10
2018-10-09T23:43:37.116Z,34.77
2018-10-09T23:46:06.397Z,37.47
2018-10-09T23:48:35.438Z,32.23
2018-10-09T23:51:04.489Z,33.80
2018-10-09T23:53:33.546Z,41.07
2018-10-09T23:56:02.651Z,40.03
2018-10-09T23:58:31.768Z,39.23
